Time;durP1;ratioP1;P1;durP2;ratioP2;P2;SDS_P1;SDS_P2;PMS_P1;PMS_P2;Temp;Humidity;BMP_temperature;BMP_pressure;BME280_temperature;BME280_humidity;BME280_pressure;Samples;Min_cycle;Max_cycle;Signal;HPM_P1;HPM_P2
2021/10/07 00:01:30;;;;;;;3.70;2.17;;;11.90;93.70;;;;;;5015662;28;20049;-69
2021/10/07 00:03:59;;;;;;;3.90;2.20;;;11.90;93.60;;;;;;5049570;28;20412;-68
2021/10/07 00:06:26;;;;;;;5.32;2.53;;;11.90;93.60;;;;;;5049503;28;20041;-70
2021/10/07 00:08:53;;;;;;;5.85;2.80;;;11.90;93.50;;;;;;5041100;28;20563;-68
2021/10/07 00:11:20;;;;;;;6.63;2.13;;;12.00;93.50;;;;;;5057562;28;20144;-68
2021/10/07 00:13:47;;;;;;;5.95;2.35;;;12.00;93.40;;;;;;5017624;28;20088;-68
2021/10/07 00:16:14;;;;;;;5.38;2.47;;;12.00;94.10;;;;;;5052370;28;20045;-67
2021/10/07 00:18:41;;;;;;;7.03;2.22;;;12.00;93.50;;;;;;5053122;28;20508;-68
2021/10/07 00:21:16;;;;;;;10.32;3.53;;;12.00;93.70;;;;;;5039415;28;20049;-68
2021/10/07 00:24:03;;;;;;;4.93;2.30;;;12.10;93.60;;;;;;5054515;28;20066;-68
2021/10/07 00:26:30;;;;;;;7.18;2.58;;;12.10;93.60;;;;;;5034045;28;20049;-68
2021/10/07 00:29:03;;;;;;;8.32;3.17;;;12.10;93.40;;;;;;5035912;28;20048;-67
2021/10/07 00:31:34;;;;;;;5.20;3.03;;;12.10;93.30;;;;;;5049782;28;20057;-68
2021/10/07 00:36:40;;;;;;;5.43;2.63;;;12.20;93.50;;;;;;5035531;28;20066;-67
2021/10/07 00:39:08;;;;;;;8.27;2.50;;;12.20;93.40;;;;;;5040716;28;20144;-67
2021/10/07 00:41:40;;;;;;;;;;;12.20;93.30;;;;;;5073081;28;20433;-68
2021/10/07 00:44:09;;;;;;;4.50;3.00;;;12.20;93.30;;;;;;5057152;28;20409;-67
2021/10/07 00:46:58;;;;;;;5.40;3.03;;;12.30;93.20;;;;;;5034734;28;20036;-68
2021/10/07 00:49:26;;;;;;;6.05;3.38;;;12.30;93.40;;;;;;5041767;28;20424;-67
2021/10/07 00:51:53;;;;;;;5.35;2.55;;;12.30;93.40;;;;;;5037191;28;20465;-68
2021/10/07 00:54:41;;;;;;;7.13;3.38;;;12.30;93.50;;;;;;5058295;28;20048;-68
2021/10/07 00:57:09;;;;;;;6.05;2.67;;;12.30;93.60;;;;;;5053204;28;20049;-68
2021/10/07 00:59:36;;;;;;;4.47;2.50;;;12.30;93.60;;;;;;5024060;28;20049;-68
2021/10/07 01:02:06;;;;;;;5.88;2.45;;;12.40;93.60;;;;;;5028674;28;20128;-68
2021/10/07 01:04:34;;;;;;;3.47;2.50;;;12.40;93.50;;;;;;5043293;28;20123;-68
2021/10/07 01:07:02;;;;;;;5.47;2.58;;;12.40;93.50;;;;;;5044675;28;20136;-69
2021/10/07 01:09:29;;;;;;;5.55;2.53;;;12.40;93.60;;;;;;5056159;28;20048;-68
2021/10/07 01:12:00;;;;;;;9.30;4.10;;;12.40;93.50;;;;;;5065201;28;20179;-69
2021/10/07 01:14:47;;;;;;;6.45;3.10;;;12.40;93.50;;;;;;5044109;28;20044;-68
2021/10/07 01:17:15;;;;;;;5.70;2.63;;;12.50;93.50;;;;;;5057099;28;20091;-68
2021/10/07 01:19:43;;;;;;;4.50;2.20;;;12.40;93.50;;;;;;5059062;28;20048;-68
2021/10/07 01:22:11;;;;;;;5.60;2.55;;;12.50;93.60;;;;;;5064184;28;20058;-68
2021/10/07 01:24:40;;;;;;;7.15;2.67;;;12.50;93.50;;;;;;5060399;28;20102;-68
2021/10/07 01:27:08;;;;;;;4.32;2.20;;;12.50;93.60;;;;;;5056733;28;20106;-67
2021/10/07 01:29:35;;;;;;;4.15;2.28;;;12.50;93.60;;;;;;5072054;28;20048;-68
2021/10/07 01:32:03;;;;;;;8.80;2.45;;;12.50;93.80;;;;;;5072655;28;20090;-69
2021/10/07 01:34:31;;;;;;;4.90;2.10;;;12.50;93.70;;;;;;5048005;28;20076;-68
2021/10/07 01:36:59;;;;;;;4.43;1.98;;;12.50;93.70;;;;;;5041235;28;20170;-68
2021/10/07 01:39:26;;;;;;;5.90;2.30;;;12.50;93.90;;;;;;5043018;28;20494;-68
2021/10/07 01:41:53;;;;;;;3.40;2.17;;;12.50;93.80;;;;;;5054673;28;20048;-68
2021/10/07 01:44:22;;;;;;;4.68;2.30;;;12.60;93.90;;;;;;5054603;28;20045;-68
2021/10/07 01:46:49;;;;;;;5.47;2.60;;;12.60;93.90;;;;;;5052076;28;20045;-68
2021/10/07 01:49:16;;;;;;;5.28;2.38;;;12.60;93.80;;;;;;5048226;28;20508;-68
2021/10/07 01:51:43;;;;;;;7.32;2.78;;;12.60;93.70;;;;;;5064015;28;20080;-67
2021/10/07 01:54:10;;;;;;;7.30;3.00;;;12.60;93.70;;;;;;5057707;28;20049;-67
2021/10/07 01:56:37;;;;;;;3.83;2.17;;;12.60;94.30;;;;;;5071920;28;20510;-67
2021/10/07 01:59:05;;;;;;;7.07;2.38;;;12.60;93.90;;;;;;5077121;28;20049;-67
2021/10/07 02:01:33;;;;;;;7.93;2.50;;;12.60;93.90;;;;;;5076541;28;20483;-67
2021/10/07 02:04:01;;;;;;;3.75;1.88;;;12.50;94.00;;;;;;5077188;28;20091;-68
2021/10/07 02:06:28;;;;;;;7.43;2.50;;;12.50;93.90;;;;;;5046603;28;20062;-67
2021/10/07 02:08:55;;;;;;;5.15;2.20;;;12.50;93.80;;;;;;5054815;28;20048;-68
2021/10/07 02:11:22;;;;;;;8.30;2.75;;;12.50;93.90;;;;;;5062456;28;20470;-68
2021/10/07 02:13:50;;;;;;;5.85;3.25;;;12.50;93.90;;;;;;5058972;28;20251;-68
2021/10/07 02:16:17;;;;;;;10.93;5.10;;;12.60;94.20;;;;;;5086890;28;20079;-67
2021/10/07 02:18:44;;;;;;;9.02;4.05;;;12.50;94.00;;;;;;5054072;28;20372;-68
2021/10/07 02:21:15;;;;;;;6.13;2.25;;;12.50;93.90;;;;;;5041814;28;20052;-68
2021/10/07 02:23:41;;;;;;;10.88;2.78;;;12.60;93.90;;;;;;5083876;28;20044;-68
2021/10/07 02:26:10;;;;;;;7.20;2.97;;;12.60;94.10;;;;;;5086693;28;20040;-71
2021/10/07 02:28:37;;;;;;;6.15;2.88;;;12.60;93.90;;;;;;5055538;28;20045;-69
2021/10/07 02:31:03;;;;;;;5.45;2.58;;;12.60;93.90;;;;;;5088200;28;20083;-68
2021/10/07 02:33:31;;;;;;;5.20;2.38;;;12.60;94.10;;;;;;5039994;28;20091;-68
2021/10/07 02:35:58;;;;;;;5.72;1.98;;;12.60;94.10;;;;;;5041750;28;20127;-67
2021/10/07 02:38:24;;;;;;;6.18;2.55;;;12.60;94.10;;;;;;5074553;28;20049;-68
2021/10/07 02:40:51;;;;;;;9.45;2.78;;;12.60;94.20;;;;;;5077677;28;20051;-67
2021/10/07 02:43:18;;;;;;;5.35;2.35;;;12.60;94.30;;;;;;5060738;28;20102;-68
2021/10/07 02:45:45;;;;;;;7.70;2.25;;;12.60;94.20;;;;;;5072899;28;20049;-67
2021/10/07 02:48:12;;;;;;;4.80;2.15;;;12.60;94.20;;;;;;5054042;28;20155;-68
2021/10/07 02:50:39;;;;;;;9.80;3.22;;;12.60;94.30;;;;;;5071682;28;20052;-67
2021/10/07 02:53:06;;;;;;;8.13;2.42;;;12.60;94.20;;;;;;5041285;28;20079;-67
2021/10/07 02:55:33;;;;;;;9.98;3.50;;;12.60;94.40;;;;;;5081924;28;20131;-68
2021/10/07 02:58:02;;;;;;;9.25;3.20;;;12.60;94.20;;;;;;5041594;28;20079;-69
2021/10/07 03:00:29;;;;;;;8.02;2.70;;;12.60;94.40;;;;;;5057678;28;20049;-68
2021/10/07 03:02:56;;;;;;;8.63;3.33;;;12.60;94.30;;;;;;5079393;28;20054;-69
2021/10/07 03:05:23;;;;;;;10.77;3.45;;;12.60;94.30;;;;;;5071011;28;20067;-68
2021/10/07 03:07:50;;;;;;;8.30;2.55;;;12.50;94.60;;;;;;5076790;28;20440;-68
2021/10/07 03:10:17;;;;;;;7.38;3.05;;;12.50;94.40;;;;;;5070938;28;20127;-68
2021/10/07 03:12:44;;;;;;;5.80;2.20;;;12.50;94.60;;;;;;5078043;28;20123;-68
2021/10/07 03:15:15;;;;;;;7.80;2.42;;;12.50;94.70;;;;;;5059291;28;20083;-68
2021/10/07 03:17:42;;;;;;;10.50;3.55;;;12.50;94.80;;;;;;5072888;28;20472;-68
2021/10/07 03:20:10;;;;;;;6.65;2.47;;;12.50;94.80;;;;;;5047068;28;20049;-69
2021/10/07 03:22:37;;;;;;;13.95;3.97;;;12.50;94.80;;;;;;5038593;28;20063;-68
2021/10/07 03:25:04;;;;;;;9.10;2.47;;;12.50;94.80;;;;;;5049307;28;20048;-68
2021/10/07 03:27:31;;;;;;;7.15;2.83;;;12.50;95.00;;;;;;5059421;28;20494;-68
2021/10/07 03:29:58;;;;;;;7.47;2.53;;;12.50;95.10;;;;;;5058372;28;20048;-68
2021/10/07 03:32:25;;;;;;;4.97;2.42;;;12.50;95.30;;;;;;5062639;28;20044;-68
2021/10/07 03:34:52;;;;;;;9.10;2.83;;;12.60;95.60;;;;;;5075972;28;20063;-68
2021/10/07 03:37:19;;;;;;;7.60;2.83;;;12.60;95.20;;;;;;5070495;28;20480;-68
2021/10/07 03:39:46;;;;;;;7.22;3.88;;;12.60;95.30;;;;;;5078873;28;20051;-68
2021/10/07 03:42:13;;;;;;;7.68;2.88;;;12.60;95.30;;;;;;5051709;28;20132;-68
2021/10/07 03:44:41;;;;;;;7.68;2.63;;;12.60;95.40;;;;;;5041034;28;20117;-69
2021/10/07 03:47:08;;;;;;;9.52;2.70;;;12.70;95.30;;;;;;5045883;28;20507;-69
2021/10/07 03:49:35;;;;;;;10.57;2.53;;;12.70;95.40;;;;;;5082348;28;20492;-68
2021/10/07 03:52:02;;;;;;;8.23;2.67;;;12.70;95.50;;;;;;5067164;28;20374;-68
2021/10/07 03:54:29;;;;;;;6.75;2.42;;;12.70;95.60;;;;;;5063245;28;20044;-67
2021/10/07 03:56:56;;;;;;;8.65;2.05;;;12.70;95.60;;;;;;5082518;28;20459;-69
2021/10/07 03:59:23;;;;;;;5.93;2.70;;;12.80;95.60;;;;;;5054632;28;20041;-67
2021/10/07 04:01:50;;;;;;;11.27;2.95;;;12.80;95.80;;;;;;5075830;28;20055;-67
2021/10/07 04:04:17;;;;;;;5.88;2.55;;;12.80;95.70;;;;;;5081803;28;20087;-67
2021/10/07 04:06:44;;;;;;;7.88;2.80;;;12.80;95.60;;;;;;5073032;28;20488;-67
2021/10/07 04:09:11;;;;;;;7.57;3.17;;;12.80;95.50;;;;;;5085354;28;20062;-67
2021/10/07 04:11:37;;;;;;;9.70;3.03;;;12.90;95.60;;;;;;5090009;28;20044;-67
2021/10/07 04:14:06;;;;;;;7.40;2.63;;;12.90;95.50;;;;;;5087125;28;20044;-67
2021/10/07 04:16:33;;;;;;;7.30;2.53;;;12.90;95.60;;;;;;5089793;28;20074;-68
2021/10/07 04:19:00;;;;;;;7.30;2.55;;;12.90;95.60;;;;;;5054896;28;20076;-68
2021/10/07 04:21:27;;;;;;;6.65;2.60;;;12.90;95.50;;;;;;5089642;28;20040;-68
2021/10/07 04:23:54;;;;;;;10.10;2.67;;;12.90;95.90;;;;;;5089491;28;20044;-68
2021/10/07 04:26:20;;;;;;;5.93;2.72;;;13.00;95.80;;;;;;5088609;28;20046;-68
2021/10/07 04:28:47;;;;;;;11.95;3.47;;;12.90;95.80;;;;;;5089133;28;20036;-68
2021/10/07 04:31:14;;;;;;;5.97;2.55;;;12.90;96.00;;;;;;5066610;28;20179;-68
2021/10/07 04:33:41;;;;;;;11.77;3.13;;;12.90;96.10;;;;;;5071578;28;20040;-68
2021/10/07 04:36:08;;;;;;;12.95;3.17;;;13.00;96.20;;;;;;5068367;28;20536;-68
2021/10/07 04:38:35;;;;;;;9.75;3.10;;;13.00;96.20;;;;;;5071689;28;20036;-68
2021/10/07 04:41:03;;;;;;;11.38;2.60;;;13.00;96.20;;;;;;5089814;28;20040;-68
2021/10/07 04:43:30;;;;;;;11.02;3.60;;;13.00;96.40;;;;;;5054916;28;20120;-68
2021/10/07 04:45:57;;;;;;;15.95;3.38;;;13.00;96.40;;;;;;5050609;28;20049;-68
2021/10/07 04:48:24;;;;;;;9.65;4.20;;;13.10;96.40;;;;;;5087329;28;20048;-68
2021/10/07 04:50:51;;;;;;;13.20;3.28;;;13.10;96.30;;;;;;5070663;28;20050;-68
2021/10/07 04:53:18;;;;;;;11.32;3.30;;;13.20;96.20;;;;;;5087596;28;20059;-68
2021/10/07 04:55:45;;;;;;;12.60;3.70;;;13.20;96.10;;;;;;5088107;28;20043;-68
2021/10/07 04:58:12;;;;;;;7.80;3.42;;;13.20;96.30;;;;;;5053952;28;20175;-68
2021/10/07 05:00:39;;;;;;;9.38;3.60;;;13.20;96.20;;;;;;5075960;28;20079;-68
2021/10/07 05:03:06;;;;;;;16.90;4.57;;;13.20;96.20;;;;;;5069931;28;20048;-68
2021/10/07 05:05:33;;;;;;;14.70;4.65;;;13.20;96.20;;;;;;5051326;28;20048;-68
2021/10/07 05:07:59;;;;;;;21.20;5.90;;;13.30;96.20;;;;;;5088703;28;20058;-69
2021/10/07 05:10:27;;;;;;;19.33;5.68;;;13.30;96.30;;;;;;5061714;28;20492;-68
2021/10/07 05:12:54;;;;;;;13.65;4.63;;;13.20;96.40;;;;;;5047383;28;20048;-68
2021/10/07 05:15:24;;;;;;;14.85;5.22;;;13.30;96.60;;;;;;5062396;28;20079;-68
2021/10/07 05:17:52;;;;;;;13.30;5.57;;;13.30;96.50;;;;;;5070869;28;20114;-68
2021/10/07 05:20:19;;;;;;;14.10;5.68;;;13.30;96.70;;;;;;5038449;28;20130;-68
2021/10/07 05:22:46;;;;;;;16.30;5.40;;;13.30;96.70;;;;;;5083965;28;20076;-68
2021/10/07 05:25:13;;;;;;;18.52;6.35;;;13.30;96.80;;;;;;5077581;28;20106;-68
2021/10/07 05:27:42;;;;;;;20.85;6.25;;;13.40;97.10;;;;;;5080950;28;20097;-68
2021/10/07 05:30:09;;;;;;;17.88;5.85;;;13.40;97.00;;;;;;5040263;28;20049;-68
2021/10/07 05:32:36;;;;;;;13.18;4.78;;;13.40;97.10;;;;;;5064691;28;20127;-68
2021/10/07 05:35:05;;;;;;;13.77;4.45;;;13.40;97.10;;;;;;5080342;28;20467;-68
2021/10/07 05:37:32;;;;;;;17.67;5.70;;;13.40;97.20;;;;;;5080274;28;20123;-68
2021/10/07 05:39:59;;;;;;;16.73;4.57;;;13.40;97.50;;;;;;5079506;28;20304;-69
2021/10/07 05:42:26;;;;;;;244.82;196.65;;;13.50;97.70;;;;;;5068955;28;20056;-68
2021/10/07 05:44:53;;;;;;;30.52;16.27;;;13.50;97.80;;;;;;5065123;28;20142;-69
2021/10/07 05:47:20;;;;;;;23.50;8.13;;;13.60;98.00;;;;;;5069941;28;20051;-69
2021/10/07 05:49:47;;;;;;;16.27;6.10;;;13.60;98.10;;;;;;5071234;28;20173;-68
2021/10/07 05:52:14;;;;;;;14.55;4.97;;;13.60;97.90;;;;;;5078422;28;20048;-67
2021/10/07 05:54:41;;;;;;;18.23;5.10;;;13.60;98.40;;;;;;5066019;28;20156;-72
2021/10/07 05:57:09;;;;;;;16.00;5.07;;;13.60;98.50;;;;;;5076561;28;20068;-68
2021/10/07 05:59:37;;;;;;;16.90;5.72;;;13.70;98.30;;;;;;5079299;28;20052;-68
2021/10/07 06:02:05;;;;;;;15.32;5.97;;;13.70;98.90;;;;;;5075544;28;20492;-72
2021/10/07 06:04:32;;;;;;;19.45;7.55;;;13.70;98.50;;;;;;5045691;28;20048;-69
2021/10/07 06:06:59;;;;;;;33.17;22.10;;;13.80;99.10;;;;;;5074631;28;20136;-72
2021/10/07 06:09:26;;;;;;;27.45;12.75;;;13.80;99.40;;;;;;5085106;28;20108;-69
2021/10/07 06:11:54;;;;;;;18.45;8.02;;;13.80;99.20;;;;;;5071476;28;20044;-67
2021/10/07 06:14:23;;;;;;;18.88;6.70;;;13.90;99.00;;;;;;5060997;28;20072;-70
2021/10/07 06:16:53;;;;;;;;;;;13.80;99.10;;;;;;5055697;28;20045;-70
2021/10/07 06:19:22;;;;;;;16.73;5.50;;;13.80;99.30;;;;;;5052836;28;19920;-70
2021/10/07 06:21:50;;;;;;;17.33;6.47;;;13.80;99.40;;;;;;5068711;28;20492;-71
2021/10/07 06:24:17;;;;;;;17.50;5.50;;;13.80;99.50;;;;;;5073504;28;20622;-70
2021/10/07 06:26:44;;;;;;;11.75;5.63;;;13.80;99.60;;;;;;5077053;28;20037;-68
2021/10/07 06:29:12;;;;;;;16.35;5.95;;;13.90;99.60;;;;;;5063313;28;20188;-68
2021/10/07 06:31:40;;;;;;;12.63;6.05;;;13.90;99.50;;;;;;5073321;28;20144;-67
2021/10/07 06:34:07;;;;;;;15.05;6.10;;;13.90;99.60;;;;;;5084767;28;20055;-67
2021/10/07 06:36:35;;;;;;;13.65;5.35;;;13.90;99.30;;;;;;5052066;28;20140;-67
2021/10/07 06:39:05;;;;;;;15.40;6.75;;;13.90;99.40;;;;;;5079793;28;20047;-68
2021/10/07 06:41:33;;;;;;;13.52;6.50;;;13.90;99.70;;;;;;5050590;28;20127;-67
2021/10/07 06:44:03;;;;;;;16.05;7.15;;;14.00;99.80;;;;;;5057961;28;20055;-67
2021/10/07 06:46:30;;;;;;;17.65;6.60;;;14.00;99.60;;;;;;5055067;28;20086;-68
2021/10/07 06:48:57;;;;;;;10.85;5.95;;;14.10;99.70;;;;;;5055361;28;20045;-67
2021/10/07 06:51:26;;;;;;;14.25;6.78;;;14.10;99.60;;;;;;5077329;28;20066;-69
2021/10/07 06:53:56;;;;;;;9.48;6.30;;;14.10;99.60;;;;;;5041092;28;20143;-70
2021/10/07 06:56:23;;;;;;;20.52;8.27;;;14.10;99.50;;;;;;5085296;28;20130;-66
2021/10/07 06:58:53;;;;;;;195.27;157.35;;;14.20;99.70;;;;;;5059024;28;20075;-71
2021/10/07 07:01:20;;;;;;;29.77;20.52;;;14.20;99.70;;;;;;5063613;28;20131;-67
2021/10/07 07:03:48;;;;;;;21.13;11.80;;;14.30;99.40;;;;;;5050450;28;20047;-66
2021/10/07 07:06:16;;;;;;;16.65;8.73;;;14.40;99.50;;;;;;5071939;28;20053;-66
2021/10/07 07:08:43;;;;;;;14.55;8.07;;;14.40;99.40;;;;;;5071498;28;20135;-66
2021/10/07 07:11:10;;;;;;;18.60;8.75;;;14.40;99.20;;;;;;5067421;28;20551;-66
2021/10/07 07:13:37;;;;;;;14.13;8.85;;;14.50;99.40;;;;;;5041416;28;20048;-66
2021/10/07 07:16:04;;;;;;;13.32;7.40;;;14.50;99.20;;;;;;5078772;28;20122;-67
2021/10/07 07:18:31;;;;;;;13.18;8.90;;;14.50;98.90;;;;;;5079990;28;20459;-66
2021/10/07 07:20:58;;;;;;;14.07;8.25;;;14.60;99.00;;;;;;5034781;28;20044;-66
2021/10/07 07:23:26;;;;;;;15.93;7.85;;;14.60;98.90;;;;;;5060174;28;20152;-65
2021/10/07 07:25:53;;;;;;;16.27;6.80;;;14.70;98.80;;;;;;5067747;28;20496;-65
2021/10/07 07:28:19;;;;;;;12.75;7.30;;;14.70;98.70;;;;;;5064483;28;20045;-66
2021/10/07 07:30:49;;;;;;;14.70;7.47;;;14.80;98.60;;;;;;5049292;28;20044;-64
2021/10/07 07:33:18;;;;;;;11.85;6.18;;;14.80;98.60;;;;;;5046092;28;20049;-72
2021/10/07 07:35:45;;;;;;;12.80;5.95;;;14.90;98.40;;;;;;5080023;28;20048;-68
2021/10/07 07:38:12;;;;;;;11.10;6.38;;;15.00;98.40;;;;;;5077358;28;20052;-65
2021/10/07 07:40:39;;;;;;;11.88;5.78;;;15.00;98.30;;;;;;5078064;28;20056;-65
2021/10/07 07:43:06;;;;;;;10.20;6.60;;;15.10;98.00;;;;;;5077033;28;20097;-66
2021/10/07 07:45:33;;;;;;;11.63;6.90;;;15.10;98.00;;;;;;5046419;28;20412;-66
2021/10/07 07:48:00;;;;;;;7.07;5.00;;;15.20;97.90;;;;;;5069973;28;20555;-67
2021/10/07 07:50:29;;;;;;;10.90;5.55;;;15.30;97.80;;;;;;5065061;28;20044;-67
2021/10/07 07:52:59;;;;;;;9.73;4.93;;;15.30;97.90;;;;;;5072915;28;20048;-68
2021/10/07 07:55:26;;;;;;;8.98;5.10;;;15.40;97.60;;;;;;5074712;28;20115;-66
2021/10/07 07:57:52;;;;;;;9.55;4.82;;;15.40;97.70;;;;;;5072546;28;20059;-67
2021/10/07 08:00:19;;;;;;;9.15;5.00;;;15.40;97.60;;;;;;5070862;28;20131;-69
2021/10/07 08:02:46;;;;;;;9.27;4.75;;;15.50;97.60;;;;;;5075386;28;20040;-70
2021/10/07 08:05:14;;;;;;;8.77;3.90;;;15.50;97.60;;;;;;5082160;28;20044;-67
2021/10/07 08:07:41;;;;;;;10.25;4.28;;;15.50;97.50;;;;;;5065529;28;20465;-67
2021/10/07 08:10:09;;;;;;;60.70;52.17;;;15.60;97.70;;;;;;5069236;28;20416;-74
2021/10/07 08:12:36;;;;;;;16.33;10.15;;;15.60;97.50;;;;;;5053802;28;20383;-66
2021/10/07 08:15:05;;;;;;;10.45;5.53;;;15.70;97.40;;;;;;5068794;28;20542;-67
2021/10/07 08:17:33;;;;;;;;;;;15.70;97.20;;;;;;5053418;28;20080;-66
2021/10/07 08:20:01;;;;;;;7.82;4.22;;;15.80;97.30;;;;;;5071302;28;19985;-68
2021/10/07 08:22:28;;;;;;;11.80;4.20;;;15.80;97.20;;;;;;5068199;28;20052;-67
2021/10/07 08:24:55;;;;;;;7.78;4.97;;;15.90;97.10;;;;;;5055683;28;20488;-68
2021/10/07 08:27:23;;;;;;;7.15;3.40;;;16.00;97.30;;;;;;5069438;28;20048;-70
2021/10/07 08:29:50;;;;;;;6.68;3.67;;;16.00;97.50;;;;;;5067805;28;20048;-70
2021/10/07 08:32:17;;;;;;;6.80;3.90;;;16.10;97.20;;;;;;5033157;28;20161;-67
2021/10/07 08:34:44;;;;;;;8.20;3.65;;;16.20;97.10;;;;;;5040137;28;20041;-74
2021/10/07 08:37:11;;;;;;;6.50;3.50;;;16.20;96.90;;;;;;5071347;28;20044;-70
2021/10/07 08:39:38;;;;;;;9.07;4.07;;;16.30;96.90;;;;;;5067802;28;20102;-75
2021/10/07 08:42:05;;;;;;;7.22;3.10;;;16.30;96.70;;;;;;5089920;28;20050;-71
2021/10/07 08:44:32;;;;;;;6.88;3.10;;;16.30;96.70;;;;;;5082231;28;20079;-68
2021/10/07 08:46:59;;;;;;;6.50;3.50;;;16.30;96.40;;;;;;5070117;28;20094;-69
2021/10/07 08:49:35;;;;;;;5.20;2.97;;;16.40;96.60;;;;;;5088821;28;20048;-70
2021/10/07 08:52:17;;;;;;;5.32;2.78;;;16.40;96.60;;;;;;5089659;28;20127;-69
2021/10/07 08:54:45;;;;;;;5.28;3.20;;;16.50;96.40;;;;;;5073046;28;20080;-69
2021/10/07 08:57:14;;;;;;;5.22;2.90;;;16.60;96.40;;;;;;5072851;28;20052;-68
2021/10/07 08:59:41;;;;;;;5.78;3.20;;;16.60;96.30;;;;;;5073168;28;20096;-77
2021/10/07 09:02:27;;;;;;;5.18;3.03;;;16.70;95.90;;;;;;5058373;28;20440;-78
2021/10/07 09:05:04;;;;;;;5.05;2.92;;;16.80;95.50;;;;;;5065029;28;20044;-72
2021/10/07 09:07:33;;;;;;;6.38;3.35;;;16.80;95.60;;;;;;5063052;28;20151;-74
2021/10/07 09:10:00;;;;;;;4.00;3.43;;;16.80;95.40;;;;;;5059106;28;20078;-71
2021/10/07 09:12:28;;;;;;;6.43;4.22;;;16.90;95.40;;;;;;5072084;28;20399;-73
2021/10/07 09:14:56;;;;;;;10.57;4.90;;;16.90;95.50;;;;;;5075646;28;20056;-69
2021/10/07 09:17:25;;;;;;;8.45;4.78;;;16.90;95.40;;;;;;5074261;28;20128;-70
2021/10/07 09:19:52;;;;;;;6.97;4.43;;;16.90;95.50;;;;;;5057281;28;20282;-69
2021/10/07 09:22:24;;;;;;;9.48;4.55;;;16.80;95.60;;;;;;5055444;28;20119;-71
2021/10/07 09:24:52;;;;;;;5.85;4.18;;;16.90;95.80;;;;;;5073838;28;20095;-69
2021/10/07 09:27:20;;;;;;;6.17;4.57;;;16.80;95.50;;;;;;5066694;28;20458;-80
2021/10/07 09:29:52;;;;;;;8.40;4.47;;;16.90;95.60;;;;;;5074805;28;20124;-72
2021/10/07 09:32:35;;;;;;;6.10;4.43;;;16.90;96.10;;;;;;5061921;28;20125;-72
2021/10/07 09:35:08;;;;;;;7.78;4.47;;;17.00;96.00;;;;;;5073112;28;20120;-75
2021/10/07 09:37:41;;;;;;;7.90;4.90;;;17.00;95.70;;;;;;5081406;28;20117;-75
2021/10/07 09:40:13;;;;;;;8.43;4.65;;;17.00;95.70;;;;;;5066873;28;20064;-70
2021/10/07 09:42:48;;;;;;;7.40;4.32;;;17.00;95.40;;;;;;5055412;28;20051;-75
2021/10/07 09:45:23;;;;;;;6.40;4.60;;;17.00;95.50;;;;;;5055296;28;20113;-71
2021/10/07 09:48:08;;;;;;;7.00;4.00;;;17.00;95.50;;;;;;5082222;28;20097;-74
2021/10/07 09:50:40;;;;;;;10.90;5.22;;;17.00;95.40;;;;;;5069709;28;20132;-74
2021/10/07 09:53:14;;;;;;;6.82;4.28;;;17.10;95.60;;;;;;5071822;28;20146;-73
2021/10/07 09:55:48;;;;;;;9.40;4.28;;;17.20;95.10;;;;;;5055548;28;20139;-72
2021/10/07 09:58:17;;;;;;;9.85;5.10;;;17.20;95.20;;;;;;5065763;28;20052;-73
2021/10/07 10:00:51;;;;;;;6.53;4.50;;;17.20;95.00;;;;;;5079554;28;20553;-72
2021/10/07 10:03:18;;;;;;;9.60;4.28;;;17.30;95.10;;;;;;5055842;28;20044;-80
2021/10/07 10:05:46;;;;;;;7.18;4.10;;;17.30;95.10;;;;;;5069446;28;20097;-75
2021/10/07 10:08:15;;;;;;;12.02;4.68;;;17.40;94.90;;;;;;5083652;28;20184;-79
2021/10/07 10:10:43;;;;;;;7.63;5.05;;;17.50;94.70;;;;;;5068702;28;20048;-75
2021/10/07 10:13:11;;;;;;;10.35;5.10;;;17.50;94.70;;;;;;5059299;28;20052;-70
2021/10/07 10:15:39;;;;;;;6.75;4.10;;;17.50;94.70;;;;;;5057162;28;20522;-73
2021/10/07 10:18:07;;;;;;;7.22;4.10;;;17.50;94.70;;;;;;5054439;28;20399;-72
2021/10/07 10:20:37;;;;;;;10.57;5.68;;;17.60;94.90;;;;;;5078610;28;20047;-73
2021/10/07 10:23:09;;;;;;;10.23;5.15;;;17.60;94.10;;;;;;5034373;28;20132;-73
2021/10/07 10:26:12;;;;;;;6.93;4.70;;;17.50;94.30;;;;;;5046550;28;20075;-72
2021/10/07 10:28:39;;;;;;;7.97;4.85;;;17.50;94.70;;;;;;5072083;28;20040;-71
2021/10/07 10:31:12;;;;;;;9.48;5.03;;;17.60;94.50;;;;;;5078119;28;20101;-72
2021/10/07 10:33:43;;;;;;;9.98;4.80;;;17.50;94.30;;;;;;5056081;28;20043;-72
2021/10/07 10:36:27;;;;;;;8.05;5.53;;;17.50;94.30;;;;;;5055197;28;20164;-70
2021/10/07 10:39:03;;;;;;;11.82;5.32;;;17.50;94.20;;;;;;5078384;28;20531;-71
2021/10/07 10:41:57;;;;;;;7.32;4.57;;;17.50;94.50;;;;;;5079535;28;20159;-71
2021/10/07 10:44:27;;;;;;;10.43;4.97;;;17.60;94.20;;;;;;5069797;28;20086;-71
2021/10/07 10:47:09;;;;;;;9.35;4.88;;;17.60;94.20;;;;;;5092040;28;20044;-69
2021/10/07 10:49:50;;;;;;;9.98;5.05;;;17.70;94.70;;;;;;5092426;28;20135;-72
2021/10/07 10:52:41;;;;;;;11.15;5.57;;;17.70;94.10;;;;;;5076096;28;20132;-68
2021/10/07 10:55:11;;;;;;;8.90;5.43;;;17.70;94.20;;;;;;5073102;28;20471;-70
2021/10/07 10:57:43;;;;;;;8.57;5.35;;;17.60;94.00;;;;;;5072405;28;20512;-70
2021/10/07 11:00:12;;;;;;;16.50;6.63;;;17.60;94.30;;;;;;5048242;28;20414;-69
2021/10/07 11:02:44;;;;;;;22.20;17.55;;;17.50;94.10;;;;;;5071564;28;20513;-69
2021/10/07 11:05:25;;;;;;;12.63;6.60;;;17.60;94.20;;;;;;5068271;28;20075;-70
2021/10/07 11:08:11;;;;;;;11.50;6.20;;;17.70;94.60;;;;;;5050046;28;20079;-72
2021/10/07 11:10:59;;;;;;;10.57;6.07;;;17.80;94.00;;;;;;5074586;28;20048;-70
2021/10/07 11:13:30;;;;;;;17.85;7.30;;;17.80;93.90;;;;;;5063913;28;20076;-71
2021/10/07 11:16:00;;;;;;;10.63;5.72;;;17.80;93.90;;;;;;5053220;28;20096;-72
2021/10/07 11:18:31;;;;;;;14.23;6.47;;;17.70;94.00;;;;;;5071510;28;20071;-68
2021/10/07 11:21:17;;;;;;;16.33;7.45;;;17.70;93.90;;;;;;5079537;28;20048;-68
2021/10/07 11:23:46;;;;;;;14.73;7.75;;;17.70;93.70;;;;;;5077107;28;20101;-69
2021/10/07 11:26:13;;;;;;;13.23;6.53;;;17.80;94.20;;;;;;5073503;28;20143;-68
2021/10/07 11:28:42;;;;;;;14.07;7.82;;;17.90;93.50;;;;;;5076871;28;20511;-66
2021/10/07 11:31:11;;;;;;;11.15;5.93;;;18.00;93.20;;;;;;5073705;28;20461;-68
2021/10/07 11:33:40;;;;;;;21.40;7.55;;;18.00;93.30;;;;;;5082129;28;20037;-71
2021/10/07 11:36:15;;;;;;;12.20;6.10;;;18.00;93.70;;;;;;5062772;28;20506;-72
2021/10/07 11:38:47;;;;;;;12.55;6.15;;;18.10;93.30;;;;;;5051341;28;20060;-73
2021/10/07 11:41:15;;;;;;;15.40;6.43;;;18.10;93.20;;;;;;5040882;28;20469;-72
2021/10/07 11:43:43;;;;;;;15.30;6.35;;;18.10;93.30;;;;;;5047333;28;20122;-73
2021/10/07 11:46:16;;;;;;;12.90;7.13;;;18.20;93.40;;;;;;5061442;28;20123;-73
2021/10/07 11:48:57;;;;;;;13.18;5.85;;;18.30;93.20;;;;;;5072659;28;20048;-73
2021/10/07 11:51:26;;;;;;;16.48;6.85;;;18.30;93.20;;;;;;5079062;28;20048;-74
2021/10/07 11:53:54;;;;;;;13.03;5.63;;;18.30;92.70;;;;;;5067397;28;20147;-73
2021/10/07 11:56:26;;;;;;;11.30;5.43;;;18.20;92.50;;;;;;5074756;28;20330;-73
2021/10/07 11:58:56;;;;;;;17.58;5.50;;;18.20;93.00;;;;;;5061893;28;20094;-74
2021/10/07 12:01:25;;;;;;;749.63;432.55;;;18.20;93.20;;;;;;5052758;28;20049;-70
2021/10/07 12:03:56;;;;;;;42.08;23.98;;;18.30;92.80;;;;;;5056379;28;20056;-69
2021/10/07 12:06:24;;;;;;;14.98;7.43;;;18.40;92.40;;;;;;5068117;28;20063;-73
2021/10/07 12:08:51;;;;;;;17.00;6.63;;;18.30;92.80;;;;;;5034699;28;20048;-73
2021/10/07 12:11:22;;;;;;;12.48;6.07;;;18.30;92.70;;;;;;5070661;28;20399;-71
2021/10/07 12:13:53;;;;;;;8.90;4.50;;;18.30;93.30;;;;;;5070091;28;20115;-72
2021/10/07 12:16:25;;;;;;;10.88;5.03;;;18.30;92.80;;;;;;5079130;28;20136;-75
2021/10/07 12:18:54;;;;;;;11.15;4.47;;;18.30;93.00;;;;;;5057437;28;20059;-73
2021/10/07 12:21:23;;;;;;;13.00;4.68;;;18.30;93.10;;;;;;5035591;28;20479;-77
2021/10/07 12:23:52;;;;;;;11.32;4.80;;;18.20;92.80;;;;;;5070194;28;20056;-72
2021/10/07 12:26:23;;;;;;;12.90;5.35;;;18.10;93.10;;;;;;5073705;28;20048;-73
2021/10/07 12:28:51;;;;;;;11.75;5.40;;;18.00;93.30;;;;;;5078810;28;20044;-73
2021/10/07 12:31:29;;;;;;;17.75;5.70;;;18.00;93.60;;;;;;5051009;28;20107;-72
2021/10/07 12:34:07;;;;;;;15.53;4.97;;;18.00;93.60;;;;;;5050828;28;20057;-71
2021/10/07 12:36:43;;;;;;;10.05;5.35;;;18.00;93.70;;;;;;5069938;28;20174;-71
2021/10/07 12:39:25;;;;;;;11.20;5.10;;;18.00;93.70;;;;;;5067770;28;20079;-73
2021/10/07 12:42:32;;;;;;;9.68;4.40;;;18.10;93.60;;;;;;5050041;28;20128;-72
2021/10/07 12:45:00;;;;;;;11.32;5.45;;;18.10;93.50;;;;;;4987646;28;20430;-75
2021/10/07 12:47:30;;;;;;;15.30;5.50;;;18.10;93.50;;;;;;5053670;28;20052;-72
2021/10/07 12:50:16;;;;;;;10.82;4.88;;;18.10;93.40;;;;;;5069376;28;20072;-70
2021/10/07 12:52:56;;;;;;;15.15;5.22;;;18.00;93.20;;;;;;5070054;28;20443;-68
2021/10/07 12:55:25;;;;;;;11.80;5.30;;;18.00;93.30;;;;;;5062701;28;20044;-74
2021/10/07 12:57:53;;;;;;;22.07;11.23;;;18.00;93.40;;;;;;5057169;28;20101;-73